createdAt,value
2023-02-03T00:00:22.092Z,2.63
2023-02-03T00:02:55.673Z,2.75
2023-02-03T00:05:29.747Z,4.72
2023-02-03T00:08:05.144Z,3.85
2023-02-03T00:10:40.726Z,5.00
2023-02-03T00:13:16.001Z,3.60
2023-02-03T00:15:49.610Z,2.90
2023-02-03T00:18:23.214Z,7.15
2023-02-03T00:20:56.737Z,3.80
2023-02-03T00:23:32.114Z,4.00
2023-02-03T00:26:10.076Z,5.00
2023-02-03T00:28:46.043Z,7.88
2023-02-03T00:31:21.688Z,5.28
2023-02-03T00:33:57.176Z,5.03
2023-02-03T00:36:30.836Z,5.70
2023-02-03T00:39:04.511Z,4.60
2023-02-03T00:41:39.884Z,2.72
2023-02-03T00:44:15.497Z,6.57
2023-02-03T00:46:49.030Z,3.97
2023-02-03T00:49:22.788Z,7.72
2023-02-03T00:51:56.506Z,3.85
2023-02-03T00:54:32.053Z,5.47
2023-02-03T00:57:06.293Z,8.55
2023-02-03T00:59:41.295Z,6.60
2023-02-03T01:02:17.063Z,3.58
2023-02-03T01:04:51.816Z,5.07
2023-02-03T01:07:25.442Z,4.80
2023-02-03T01:09:58.951Z,6.20
2023-02-03T01:12:33.232Z,7.18
2023-02-03T01:15:09.246Z,4.65
2023-02-03T01:17:44.006Z,3.85
2023-02-03T01:20:18.098Z,3.55
2023-02-03T01:22:51.643Z,3.20
2023-02-03T01:25:25.189Z,4.03
2023-02-03T01:27:58.751Z,5.63
2023-02-03T01:30:33.765Z,3.22
2023-02-03T01:33:07.527Z,3.25
2023-02-03T01:35:41.109Z,3.17
2023-02-03T01:38:16.683Z,6.07
2023-02-03T01:40:50.190Z,2.25
2023-02-03T01:43:31.984Z,3.40
2023-02-03T01:46:26.511Z,2.45
2023-02-03T01:49:08.209Z,1.95
2023-02-03T01:51:44.139Z,4.13
2023-02-03T01:54:20.937Z,3.15
2023-02-03T01:56:57.891Z,4.28
2023-02-03T01:59:32.718Z,3.75
2023-02-03T02:02:09.125Z,2.88
2023-02-03T02:04:52.473Z,3.42
2023-02-03T02:07:26.593Z,5.28
2023-02-03T02:10:01.110Z,3.72
2023-02-03T02:12:34.921Z,3.85
2023-02-03T02:15:09.948Z,2.40
2023-02-03T02:18:14.590Z,3.50
2023-02-03T02:21:24.682Z,4.00
2023-02-03T02:24:44.073Z,4.03
2023-02-03T02:27:37.502Z,5.25
2023-02-03T02:30:47.947Z,1.90
2023-02-03T02:33:34.229Z,7.93
2023-02-03T02:36:17.249Z,3.22
2023-02-03T02:38:59.093Z,6.63
2023-02-03T02:41:48.124Z,5.03
2023-02-03T02:44:25.814Z,3.92
2023-02-03T02:47:03.330Z,4.75
2023-02-03T02:49:44.690Z,6.82
2023-02-03T02:52:19.778Z,2.60
2023-02-03T02:54:57.467Z,3.40
2023-02-03T02:57:35.403Z,3.50
2023-02-03T03:00:10.487Z,5.43
2023-02-03T03:02:44.051Z,5.32
2023-02-03T03:05:20.144Z,2.83
2023-02-03T03:08:02.293Z,3.42
2023-02-03T03:10:39.015Z,2.88
2023-02-03T03:13:18.568Z,3.90
2023-02-03T03:15:54.454Z,3.28
2023-02-03T03:18:31.597Z,3.80
2023-02-03T03:21:09.407Z,3.45
2023-02-03T03:23:45.885Z,3.17
2023-02-03T03:26:24.822Z,3.70
2023-02-03T03:29:07.213Z,2.33
2023-02-03T03:31:41.664Z,2.97
2023-02-03T03:34:17.246Z,2.13
2023-02-03T03:36:59.772Z,3.58
2023-02-03T03:42:14.410Z,5.70
2023-02-03T03:44:54.019Z,4.30
2023-02-03T03:47:34.451Z,3.28
2023-02-03T03:50:12.004Z,3.97
2023-02-03T03:52:48.698Z,2.95
2023-02-03T03:55:22.803Z,6.97
2023-02-03T03:58:01.166Z,3.92
2023-02-03T04:00:37.068Z,6.63
2023-02-03T04:03:15.327Z,2.70
2023-02-03T04:05:48.963Z,4.97
2023-02-03T04:08:23.864Z,3.25
2023-02-03T04:10:57.431Z,8.07
2023-02-03T04:13:30.957Z,5.63
2023-02-03T04:16:04.595Z,2.83
2023-02-03T04:18:38.532Z,3.17
2023-02-03T04:21:12.074Z,5.55
2023-02-03T04:23:47.068Z,5.90
2023-02-03T04:26:20.581Z,4.20
2023-02-03T04:28:54.124Z,4.82
2023-02-03T04:31:27.800Z,3.63
2023-02-03T04:34:01.367Z,5.65
2023-02-03T04:36:34.876Z,3.53
2023-02-03T04:39:09.810Z,4.72
2023-02-03T04:41:43.284Z,2.35
2023-02-03T04:44:16.762Z,3.38
2023-02-03T04:46:50.331Z,2.85
2023-02-03T04:49:23.881Z,7.10
2023-02-03T04:51:57.442Z,4.43
2023-02-03T04:54:32.455Z,4.40
2023-02-03T04:57:06.724Z,5.43
2023-02-03T04:59:40.418Z,4.40
2023-02-03T05:02:13.981Z,3.22
2023-02-03T05:04:47.553Z,3.28
2023-02-03T05:07:21.174Z,3.30
2023-02-03T05:09:56.236Z,5.45
2023-02-03T05:12:29.829Z,4.93
2023-02-03T05:15:03.384Z,5.13
2023-02-03T05:17:40.057Z,4.45
2023-02-03T05:20:13.973Z,5.25
2023-02-03T05:22:47.547Z,3.20
2023-02-03T05:25:22.718Z,3.25
2023-02-03T05:27:56.320Z,6.00
2023-02-03T05:30:30.376Z,4.15
2023-02-03T05:33:04.264Z,2.08
2023-02-03T05:35:37.795Z,2.92
2023-02-03T05:38:11.461Z,3.67
2023-02-03T05:41:06.166Z,6.53
2023-02-03T05:43:39.809Z,5.03
2023-02-03T05:46:13.367Z,6.10
2023-02-03T05:48:46.934Z,3.83
2023-02-03T05:51:20.529Z,4.32
2023-02-03T05:53:54.286Z,3.90
2023-02-03T05:56:29.330Z,2.65
2023-02-03T05:59:03.017Z,2.47
2023-02-03T06:01:37.752Z,3.50
2023-02-03T06:04:11.553Z,1.88
2023-02-03T06:06:45.146Z,7.15
2023-02-03T06:09:18.736Z,4.68
2023-02-03T06:11:53.715Z,2.70
2023-02-03T06:14:28.553Z,5.00
2023-02-03T06:17:02.224Z,3.17
2023-02-03T06:19:35.838Z,5.13
2023-02-03T06:22:09.412Z,6.18
2023-02-03T06:24:44.895Z,5.22
2023-02-03T06:27:19.870Z,6.50
2023-02-03T06:29:53.410Z,9.18
2023-02-03T06:32:27.055Z,10.23
2023-02-03T06:35:00.557Z,3.03
2023-02-03T06:37:35.657Z,3.08
2023-02-03T06:40:09.932Z,3.20
2023-02-03T06:42:48.278Z,4.78
2023-02-03T06:45:21.919Z,5.60
2023-02-03T06:47:55.704Z,3.15
2023-02-03T06:50:29.539Z,4.05
2023-02-03T06:53:03.304Z,5.90
2023-02-03T06:55:36.880Z,8.65
2023-02-03T06:58:11.805Z,18.20
2023-02-03T07:00:45.422Z,11.65
2023-02-03T07:03:19.182Z,13.50
2023-02-03T07:05:52.746Z,9.98
2023-02-03T07:08:26.338Z,10.43
2023-02-03T07:10:59.877Z,6.90
2023-02-03T07:13:34.911Z,5.97
2023-02-03T07:16:08.874Z,5.82
2023-02-03T07:18:47.200Z,7.60
2023-02-03T07:21:21.654Z,8.48
2023-02-03T07:23:55.228Z,5.80
2023-02-03T07:26:28.939Z,6.30
2023-02-03T07:29:04.172Z,3.30
2023-02-03T07:31:38.571Z,3.53
2023-02-03T07:34:12.344Z,5.53
2023-02-03T07:36:46.033Z,6.00
2023-02-03T07:39:19.573Z,3.22
2023-02-03T07:41:53.179Z,3.22
2023-02-03T07:44:30.516Z,4.20
2023-02-03T07:47:04.109Z,4.15
2023-02-03T07:49:37.568Z,5.63
2023-02-03T07:52:11.114Z,1.98
2023-02-03T07:54:44.628Z,2.75
2023-02-03T07:57:18.214Z,2.38
2023-02-03T07:59:53.204Z,3.53
2023-02-03T08:02:26.961Z,4.32
2023-02-03T08:05:00.552Z,3.65
2023-02-03T08:07:34.099Z,3.95
2023-02-03T08:10:09.122Z,4.10
2023-02-03T08:12:45.311Z,8.45
2023-02-03T08:15:21.577Z,4.75
2023-02-03T08:17:55.277Z,5.57
2023-02-03T08:20:29.209Z,3.75
2023-02-03T08:23:03.152Z,4.13
2023-02-03T08:25:36.970Z,10.48
2023-02-03T08:28:10.591Z,7.07
2023-02-03T08:30:45.781Z,13.50
2023-02-03T08:33:19.402Z,6.25
2023-02-03T08:35:52.967Z,4.88
2023-02-03T08:38:26.530Z,10.40
2023-02-03T08:41:00.592Z,8.50
2023-02-03T08:43:34.249Z,6.60
2023-02-03T08:46:10.955Z,5.47
2023-02-03T08:48:44.647Z,3.75
2023-02-03T08:51:19.533Z,3.47
2023-02-03T08:53:53.357Z,7.65
2023-02-03T08:56:27.632Z,5.07
2023-02-03T08:59:01.520Z,4.85
2023-02-03T09:01:36.628Z,5.15
2023-02-03T09:04:10.625Z,3.60
2023-02-03T09:06:44.355Z,7.07
2023-02-03T09:09:17.956Z,8.02
2023-02-03T09:11:51.570Z,5.57
2023-02-03T09:14:27.248Z,3.53
2023-02-03T09:17:03.338Z,5.13
2023-02-03T09:19:37.326Z,3.20
2023-02-03T09:22:12.269Z,4.07
2023-02-03T09:24:46.367Z,2.75
2023-02-03T09:27:20.168Z,2.45
2023-02-03T09:29:54.053Z,4.05
2023-02-03T09:32:29.213Z,2.38
2023-02-03T09:35:05.423Z,3.95
2023-02-03T09:37:39.152Z,2.38
2023-02-03T09:40:21.899Z,2.97
2023-02-03T09:43:05.510Z,2.58
2023-02-03T09:45:39.195Z,7.72
2023-02-03T09:48:20.460Z,2.72
2023-02-03T09:50:55.136Z,2.83
2023-02-03T09:53:32.337Z,2.80
2023-02-03T09:56:06.230Z,1.52
2023-02-03T09:58:39.801Z,3.65
2023-02-03T10:01:16.799Z,9.43
2023-02-03T10:03:57.677Z,2.35
2023-02-03T10:06:37.390Z,3.10
2023-02-03T10:09:26.994Z,4.22
2023-02-03T10:12:23.593Z,3.35
2023-02-03T10:15:17.290Z,2.63
2023-02-03T10:17:56.513Z,3.33
2023-02-03T10:20:40.166Z,3.30
2023-02-03T10:23:17.787Z,1.90
2023-02-03T10:25:57.297Z,1.90
2023-02-03T10:28:39.543Z,3.42
2023-02-03T10:31:19.780Z,3.67
2023-02-03T10:34:00.808Z,3.20
2023-02-03T10:36:48.112Z,5.65
2023-02-03T10:39:31.100Z,4.53
2023-02-03T10:42:08.331Z,4.10
2023-02-03T10:44:45.390Z,2.60
2023-02-03T10:47:29.195Z,2.90
2023-02-03T10:50:09.099Z,4.75
2023-02-03T10:52:44.648Z,2.97
2023-02-03T10:55:32.527Z,3.33
2023-02-03T10:58:15.646Z,2.17
2023-02-03T11:01:04.365Z,4.03
2023-02-03T11:03:39.369Z,5.50
2023-02-03T11:19:18.691Z,3.20
2023-02-03T11:21:56.040Z,3.83
2023-02-03T11:24:32.605Z,5.63
2023-02-03T11:27:08.559Z,2.28
2023-02-03T11:29:44.723Z,3.95
2023-02-03T11:32:21.799Z,4.75
2023-02-03T11:34:59.825Z,4.68
2023-02-03T11:37:35.597Z,5.57
2023-02-03T11:40:30.303Z,4.32
2023-02-03T11:43:07.117Z,5.93
2023-02-03T11:45:43.526Z,4.18
2023-02-03T11:48:24.654Z,5.03
2023-02-03T11:51:05.410Z,5.75
2023-02-03T11:54:03.965Z,4.13
2023-02-03T11:56:53.049Z,4.20
2023-02-03T11:59:46.381Z,5.75
2023-02-03T12:02:41.915Z,4.05
2023-02-03T12:05:38.230Z,3.67
2023-02-03T12:08:25.198Z,7.22
2023-02-03T12:11:09.885Z,3.60
2023-02-03T12:14:18.900Z,5.40
2023-02-03T12:17:26.726Z,6.78
2023-02-03T12:20:15.730Z,3.63
2023-02-03T12:22:55.658Z,3.67
2023-02-03T12:25:38.560Z,3.10
2023-02-03T12:28:33.271Z,3.20
2023-02-03T12:31:13.638Z,4.80
2023-02-03T12:33:52.019Z,5.93
2023-02-03T12:36:30.825Z,4.95
2023-02-03T12:39:11.913Z,4.30
2023-02-03T12:41:52.198Z,4.70
2023-02-03T12:44:33.284Z,4.55
2023-02-03T12:47:14.423Z,9.68
2023-02-03T12:49:53.990Z,5.03
2023-02-03T12:52:32.149Z,6.68
2023-02-03T12:55:18.452Z,4.60
2023-02-03T12:58:00.184Z,4.28
2023-02-03T13:00:43.190Z,4.20
2023-02-03T13:03:26.219Z,5.43
2023-02-03T13:06:09.450Z,4.38
2023-02-03T13:08:48.775Z,4.00
2023-02-03T13:11:29.753Z,1.73
2023-02-03T13:14:13.756Z,3.97
2023-02-03T13:16:53.540Z,2.03
2023-02-03T13:19:31.836Z,3.60
2023-02-03T13:22:11.845Z,5.32
2023-02-03T13:24:51.058Z,3.55
2023-02-03T13:27:46.006Z,5.85
2023-02-03T13:30:41.217Z,2.55
2023-02-03T13:33:59.048Z,4.63
2023-02-03T13:37:04.098Z,4.35
2023-02-03T13:40:03.547Z,4.03
2023-02-03T13:42:42.414Z,3.90
2023-02-03T13:45:26.458Z,5.43
2023-02-03T13:48:09.401Z,4.47
2023-02-03T13:50:43.308Z,2.25
2023-02-03T13:53:20.678Z,4.45
2023-02-03T13:55:57.167Z,4.43
2023-02-03T13:58:32.412Z,3.78
2023-02-03T14:01:30.835Z,2.67
2023-02-03T14:04:06.185Z,3.35
2023-02-03T14:07:02.040Z,3.83
2023-02-03T14:09:46.059Z,5.38
2023-02-03T14:12:35.832Z,4.82
2023-02-03T14:15:23.126Z,2.80
2023-02-03T14:18:01.689Z,3.78
2023-02-03T14:20:47.962Z,3.03
2023-02-03T14:23:28.316Z,1.92
2023-02-03T14:26:02.862Z,2.95
2023-02-03T14:28:42.904Z,5.05
2023-02-03T14:31:20.422Z,6.32
2023-02-03T14:34:06.387Z,3.25
2023-02-03T14:36:48.601Z,4.75
2023-02-03T14:40:07.793Z,3.22
2023-02-03T14:43:16.633Z,3.53
2023-02-03T14:46:23.178Z,2.05
2023-02-03T14:49:14.769Z,3.25
2023-02-03T14:52:16.178Z,1.88
2023-02-03T14:55:03.742Z,3.38
2023-02-03T14:57:43.904Z,3.75
2023-02-03T15:00:31.483Z,6.32
2023-02-03T15:03:25.431Z,1.98
2023-02-03T15:06:03.893Z,4.53
2023-02-03T15:08:42.384Z,3.33
2023-02-03T15:11:28.438Z,2.35
2023-02-03T15:14:22.601Z,4.38
2023-02-03T15:16:59.129Z,3.13
2023-02-03T15:19:36.332Z,2.55
2023-02-03T15:22:23.216Z,6.45
2023-02-03T15:25:01.028Z,5.50
2023-02-03T15:27:34.880Z,3.20
2023-02-03T15:30:18.967Z,2.88
2023-02-03T15:33:03.174Z,6.07
2023-02-03T15:35:39.034Z,4.53
2023-02-03T15:38:16.770Z,4.03
2023-02-03T15:40:54.900Z,4.18
2023-02-03T15:43:33.887Z,7.13
2023-02-03T15:46:13.460Z,12.50
2023-02-03T15:48:50.418Z,7.05
2023-02-03T15:51:27.683Z,6.25
2023-02-03T15:54:06.457Z,6.13
2023-02-03T15:56:43.158Z,5.15
2023-02-03T15:59:23.392Z,2.17
2023-02-03T16:01:57.637Z,3.88
2023-02-03T16:04:32.506Z,5.00
2023-02-03T16:07:06.101Z,3.42
2023-02-03T16:09:42.720Z,2.55
2023-02-03T16:12:24.997Z,3.53
2023-02-03T16:15:00.599Z,3.03
2023-02-03T16:17:36.765Z,4.20
2023-02-03T16:20:24.412Z,5.20
2023-02-03T16:23:16.991Z,2.85
2023-02-03T16:26:18.569Z,5.85
2023-02-03T16:29:31.010Z,3.10
2023-02-03T16:32:35.068Z,4.07
2023-02-03T16:35:29.733Z,4.03
2023-02-03T16:38:25.975Z,3.30
2023-02-03T16:41:16.977Z,8.70
2023-02-03T16:44:09.103Z,7.70
2023-02-03T16:47:06.732Z,14.57
2023-02-03T16:49:57.544Z,11.50
2023-02-03T16:52:32.526Z,8.30
2023-02-03T16:55:07.750Z,8.27
2023-02-03T16:57:41.296Z,8.77
2023-02-03T17:00:17.657Z,8.35
2023-02-03T17:02:51.514Z,9.48
2023-02-03T17:05:25.131Z,10.98
2023-02-03T17:07:58.843Z,13.68
2023-02-03T17:10:34.432Z,14.50
2023-02-03T17:13:09.082Z,15.88
2023-02-03T17:15:46.294Z,15.13
2023-02-03T17:18:20.166Z,13.20
2023-02-03T17:20:53.754Z,13.85
2023-02-03T17:23:27.269Z,18.00
2023-02-03T17:26:00.768Z,15.27
2023-02-03T17:28:34.805Z,9.27
2023-02-03T17:31:13.126Z,12.52
2023-02-03T17:33:47.315Z,12.82
2023-02-03T17:36:21.949Z,6.68
2023-02-03T17:55:48.946Z,11.82
2023-02-03T17:58:22.541Z,8.02
2023-02-03T18:00:56.102Z,12.38
2023-02-03T18:03:31.051Z,12.27
2023-02-03T18:06:06.361Z,12.10
2023-02-03T18:08:40.511Z,10.90
2023-02-03T18:11:15.136Z,11.90
2023-02-03T18:13:50.400Z,14.07
2023-02-03T18:16:26.687Z,11.85
2023-02-03T18:19:03.397Z,12.57
2023-02-03T18:21:39.838Z,7.90
2023-02-03T18:24:16.772Z,9.73
2023-02-03T18:26:52.492Z,14.90
2023-02-03T18:29:27.025Z,27.50
2023-02-03T18:32:00.606Z,7.00
2023-02-03T18:34:35.779Z,10.05
2023-02-03T18:37:09.786Z,14.48
2023-02-03T18:39:43.422Z,12.18
2023-02-03T18:42:17.048Z,14.00
2023-02-03T18:44:50.668Z,10.85
2023-02-03T18:47:24.318Z,14.45
2023-02-03T18:49:59.360Z,18.52
2023-02-03T18:52:32.920Z,13.57
2023-02-03T18:55:07.087Z,16.50
2023-02-03T18:57:40.903Z,15.15
2023-02-03T19:00:15.603Z,13.50
2023-02-03T19:02:50.267Z,23.52
2023-02-03T19:05:25.488Z,40.00
2023-02-03T19:07:59.081Z,43.53
2023-02-03T19:10:32.972Z,58.03
2023-02-03T19:13:06.570Z,65.93
2023-02-03T19:15:40.088Z,57.25
2023-02-03T19:18:13.743Z,47.95
2023-02-03T19:20:48.719Z,56.45
2023-02-03T19:23:23.910Z,56.92
2023-02-03T19:25:57.862Z,56.05
2023-02-03T19:28:33.135Z,44.85
2023-02-03T19:31:09.720Z,39.72
2023-02-03T19:33:43.571Z,47.20
2023-02-03T19:36:18.938Z,43.70
2023-02-03T19:38:52.878Z,32.88
2023-02-03T19:41:28.103Z,26.17
2023-02-03T19:44:02.143Z,42.70
2023-02-03T19:46:37.398Z,51.67
2023-02-03T19:49:13.612Z,40.20
2023-02-03T19:51:49.343Z,50.35
2023-02-03T19:54:23.109Z,34.40
2023-02-03T19:56:57.191Z,34.25
2023-02-03T19:59:31.626Z,32.85
2023-02-03T20:02:13.786Z,35.05
2023-02-03T20:04:50.166Z,34.33
2023-02-03T20:07:25.609Z,38.92
2023-02-03T20:09:59.738Z,177.32
2023-02-03T20:12:33.372Z,49.00
2023-02-03T20:15:08.042Z,40.67
2023-02-03T20:17:43.000Z,37.40
2023-02-03T20:20:20.362Z,44.67
2023-02-03T20:22:55.817Z,243.20
2023-02-03T20:25:29.611Z,232.13
2023-02-03T20:28:04.431Z,217.45
2023-02-03T20:30:38.856Z,212.55
2023-02-03T20:33:13.203Z,262.85
2023-02-03T20:35:47.021Z,150.65
2023-02-03T20:38:22.329Z,166.75
2023-02-03T20:40:56.322Z,140.13
2023-02-03T20:43:30.101Z,123.32
2023-02-03T20:46:03.896Z,125.13
2023-02-03T20:48:37.616Z,128.27
2023-02-03T20:51:13.036Z,96.53
2023-02-03T20:53:50.048Z,70.40
2023-02-03T20:56:24.191Z,63.30
2023-02-03T20:58:58.465Z,59.55
2023-02-03T21:01:32.117Z,59.63
2023-02-03T21:04:23.941Z,59.40
2023-02-03T21:06:57.533Z,71.10
2023-02-03T21:09:32.621Z,66.45
2023-02-03T21:12:12.655Z,61.25
2023-02-03T21:14:49.120Z,77.22
2023-02-03T21:17:24.769Z,60.38
2023-02-03T21:19:58.400Z,179.38
2023-02-03T21:22:34.063Z,99.88
2023-02-03T21:25:28.279Z,79.72
2023-02-03T21:28:02.623Z,55.85
2023-02-03T21:30:36.755Z,69.35
2023-02-03T21:33:35.723Z,87.93
2023-02-03T21:36:19.146Z,100.80
2023-02-03T21:38:54.903Z,104.40
2023-02-03T21:41:34.410Z,111.82
2023-02-03T21:44:27.614Z,109.72
2023-02-03T21:47:05.742Z,100.05
2023-02-03T21:49:39.394Z,71.35
2023-02-03T21:52:14.794Z,71.95
2023-02-03T21:54:48.369Z,56.47
2023-02-03T21:57:23.528Z,57.97
2023-02-03T21:59:57.079Z,76.93
2023-02-03T22:02:56.689Z,13.55
2023-02-03T22:05:30.450Z,5.25
2023-02-03T22:08:14.841Z,19.73
2023-02-03T22:10:48.605Z,10.57
2023-02-03T22:13:23.575Z,10.35
2023-02-03T22:15:57.282Z,5.35
2023-02-03T22:18:30.904Z,3.92
2023-02-03T22:21:04.903Z,8.52
2023-02-03T22:23:38.628Z,11.63
2023-02-03T22:26:13.473Z,7.03
2023-02-03T22:28:48.437Z,5.38
2023-02-03T22:31:22.759Z,7.90
2023-02-03T22:33:56.582Z,10.52
2023-02-03T22:36:30.305Z,7.70
2023-02-03T22:39:04.189Z,6.68
2023-02-03T22:41:37.709Z,7.40
2023-02-03T22:44:16.125Z,8.00
2023-02-03T22:46:49.605Z,5.78
2023-02-03T22:49:23.109Z,9.48
2023-02-03T22:51:56.581Z,19.35
2023-02-03T22:54:30.093Z,21.25
2023-02-03T22:57:03.608Z,3.92
2023-02-03T22:59:38.492Z,4.55
2023-02-03T23:02:11.947Z,3.53
2023-02-03T23:04:45.591Z,1.63
2023-02-03T23:07:19.205Z,1.33
2023-02-03T23:09:52.640Z,3.97
2023-02-03T23:12:26.348Z,3.28
2023-02-03T23:15:01.352Z,3.50
2023-02-03T23:17:35.251Z,4.32
2023-02-03T23:20:10.520Z,4.75
2023-02-03T23:22:44.584Z,2.72
2023-02-03T23:25:18.162Z,2.35
2023-02-03T23:27:51.799Z,8.95
2023-02-03T23:30:26.672Z,11.52
2023-02-03T23:33:00.174Z,5.25
2023-02-03T23:35:49.118Z,3.63
2023-02-03T23:38:23.085Z,7.70
2023-02-03T23:40:56.657Z,2.92
2023-02-03T23:43:30.128Z,7.72
2023-02-03T23:46:05.040Z,5.78
2023-02-03T23:48:38.771Z,4.18
2023-02-03T23:51:12.228Z,3.50
2023-02-03T23:53:45.701Z,2.53
2023-02-03T23:56:19.365Z,9.40
2023-02-03T23:58:53.010Z,7.43
